Canalou, MO (63828)

2:02 AM CDT on September 20, 2014 (GMT -0500)
SEMO Electric Coop | Change Station
CLOSE
Current Station
Personal Weather Station
Location: Sikeston, MO
Elevation: 338 ft
Nearby Weather Stations
Active Advisory: Special Statement

Elev 338 ft 36.85 °N, 89.58 °W | Updated 1 minute ago

Clear
Clear
65.0 °F
Feels Like 65.0 °F
N
0.0
Wind Variable Wind from SSE
Gusts 0.0 mph

Today
High -- | Low -- °F
--% Chance of Precip.
Yesterday
High -- | Low -- °F
Precip. -- in
6:45 AM 6:58 PM
Waning Crescent, 14% visible
Pressure 30.03 in
Visibility 5.0 miles
Clouds Clear
Dew Point 61 °F
Humidity 88%
Rainfall 0.00 in
Snow Depth Not available.
UV 0 out of 12
Pollen 7.40 out of 12
Air Quality Not available.
Flu Activity Not available.
METAR KCIR 200655Z AUTO 00000KT 5SM BR CLR 16/14 A3003 RMK AO2 T01550143

More Conditions Fewer Conditions

Pressure 30.03 in
Visibility 5.0 miles
Clouds Clear
Dew Point 61 °F
Humidity 88%
Rainfall 0.00 in
Snow Depth Not available.
UV 0 out of 12
Pollen 7.40 out of 12
Air Quality Not available.
Flu Activity Not available.
METAR KCIR 200655Z AUTO 00000KT 5SM BR CLR 16/14 A3003 RMK AO2 T01550143

More Conditions Fewer Conditions

10-Day Weather Forecast

Almanac

Astronomy

Sep. 20, 2014 Rise Set
Actual Time 6:45 AM CDT 6:58 PM CDT
Civil Twilight 6:19 AM CDT 7:24 PM CDT
Nautical Twilight 5:48 AM CDT 7:54 PM CDT
Astronomical Twilight 5:18 AM CDT 8:25 PM CDT
Moon 3:28 AM CDT 4:58 PM CDT
Length of Visible Light 13h 05m
Length of Day
12h 13m
Tomorrow will be 2m 20s shorter.
Waning Crescent, 14% of the Moon is Illuminated
Today
Waning Crescent
Sep 24
New
Oct 1
First Quarter
Oct 8
Full
Oct 15
Last Quarter

Today's Extremes

State Highs State Lows

Community

WunderPhotos

Upload Photos

1,754,780 photos uploaded!

WunderBlogs® & News

Nearby

Snow Depth

Station Depth Elevation
No new snow has been reported.

Earthquake Activity

City Distance Mag. Time & Date
No recent earthquake activity has been reported nearby.
Minimum magnitude displayed is 2.5.

Coastal Water Temperatures

Place Temperature
No Stations Reporting

Nearby Weather Stations